sensor_id;sensor_type;location;lat;lon;timestamp;P1;durP1;ratioP1;P2;durP2;ratioP2
73650;SDS011;61944;52.538;6.108;2022-07-29T00:00:34;3.42;;;2.47;;
73650;SDS011;61944;52.538;6.108;2022-07-29T00:02:59;5.78;;;2.53;;
73650;SDS011;61944;52.538;6.108;2022-07-29T00:05:24;3.03;;;2.20;;
73650;SDS011;61944;52.538;6.108;2022-07-29T00:07:49;7.63;;;3.65;;
73650;SDS011;61944;52.538;6.108;2022-07-29T00:10:15;6.70;;;2.35;;
73650;SDS011;61944;52.538;6.108;2022-07-29T00:12:40;9.33;;;2.43;;
73650;SDS011;61944;52.538;6.108;2022-07-29T00:15:05;4.40;;;2.50;;
73650;SDS011;61944;52.538;6.108;2022-07-29T00:17:32;4.88;;;2.60;;
73650;SDS011;61944;52.538;6.108;2022-07-29T00:19:59;4.68;;;2.67;;
73650;SDS011;61944;52.538;6.108;2022-07-29T00:22:24;4.57;;;2.42;;
73650;SDS011;61944;52.538;6.108;2022-07-29T00:24:49;4.75;;;2.67;;
73650;SDS011;61944;52.538;6.108;2022-07-29T00:27:16;4.35;;;2.83;;
73650;SDS011;61944;52.538;6.108;2022-07-29T00:29:41;5.68;;;3.05;;
73650;SDS011;61944;52.538;6.108;2022-07-29T00:32:06;5.40;;;2.67;;
73650;SDS011;61944;52.538;6.108;2022-07-29T00:34:32;5.25;;;2.80;;
73650;SDS011;61944;52.538;6.108;2022-07-29T00:37:16;5.53;;;2.88;;
73650;SDS011;61944;52.538;6.108;2022-07-29T00:39:41;5.10;;;3.13;;
73650;SDS011;61944;52.538;6.108;2022-07-29T00:42:06;5.22;;;2.38;;
73650;SDS011;61944;52.538;6.108;2022-07-29T00:44:36;3.22;;;2.17;;
73650;SDS011;61944;52.538;6.108;2022-07-29T00:47:01;2.67;;;2.42;;
73650;SDS011;61944;52.538;6.108;2022-07-29T00:49:26;5.05;;;2.28;;
73650;SDS011;61944;52.538;6.108;2022-07-29T00:51:51;3.22;;;2.42;;
73650;SDS011;61944;52.538;6.108;2022-07-29T00:54:17;7.70;;;3.25;;
73650;SDS011;61944;52.538;6.108;2022-07-29T00:56:42;7.63;;;3.22;;
73650;SDS011;61944;52.538;6.108;2022-07-29T00:59:07;6.82;;;2.75;;
73650;SDS011;61944;52.538;6.108;2022-07-29T01:01:32;4.20;;;2.42;;
73650;SDS011;61944;52.538;6.108;2022-07-29T01:03:58;7.25;;;2.67;;
73650;SDS011;61944;52.538;6.108;2022-07-29T01:06:23;3.58;;;2.40;;
73650;SDS011;61944;52.538;6.108;2022-07-29T01:08:49;4.55;;;2.50;;
73650;SDS011;61944;52.538;6.108;2022-07-29T01:11:16;4.20;;;2.10;;
73650;SDS011;61944;52.538;6.108;2022-07-29T01:13:42;4.68;;;2.97;;
73650;SDS011;61944;52.538;6.108;2022-07-29T01:16:13;5.82;;;2.88;;
73650;SDS011;61944;52.538;6.108;2022-07-29T01:18:41;5.65;;;2.58;;
73650;SDS011;61944;52.538;6.108;2022-07-29T01:21:27;5.82;;;3.33;;
73650;SDS011;61944;52.538;6.108;2022-07-29T01:26:28;5.25;;;2.40;;
73650;SDS011;61944;52.538;6.108;2022-07-29T01:34:05;3.80;;;3.03;;
73650;SDS011;61944;52.538;6.108;2022-07-29T01:36:33;4.93;;;2.83;;
73650;SDS011;61944;52.538;6.108;2022-07-29T01:39:07;7.65;;;3.10;;
73650;SDS011;61944;52.538;6.108;2022-07-29T01:41:34;6.63;;;2.88;;
73650;SDS011;61944;52.538;6.108;2022-07-29T01:44:11;4.60;;;3.42;;
73650;SDS011;61944;52.538;6.108;2022-07-29T01:46:38;4.85;;;2.40;;
73650;SDS011;61944;52.538;6.108;2022-07-29T01:49:16;6.07;;;2.30;;
73650;SDS011;61944;52.538;6.108;2022-07-29T01:56:51;4.30;;;3.15;;
73650;SDS011;61944;52.538;6.108;2022-07-29T01:59:18;7.95;;;3.53;;
73650;SDS011;61944;52.538;6.108;2022-07-29T02:01:45;6.03;;;3.17;;
73650;SDS011;61944;52.538;6.108;2022-07-29T02:04:11;7.75;;;3.38;;
73650;SDS011;61944;52.538;6.108;2022-07-29T02:06:37;8.50;;;3.65;;
73650;SDS011;61944;52.538;6.108;2022-07-29T02:09:03;9.05;;;3.60;;
73650;SDS011;61944;52.538;6.108;2022-07-29T02:11:31;3.55;;;2.63;;
73650;SDS011;61944;52.538;6.108;2022-07-29T02:13:57;5.50;;;3.08;;
73650;SDS011;61944;52.538;6.108;2022-07-29T02:16:23;5.93;;;2.97;;
73650;SDS011;61944;52.538;6.108;2022-07-29T02:18:50;7.63;;;3.33;;
73650;SDS011;61944;52.538;6.108;2022-07-29T02:21:19;4.18;;;2.80;;
73650;SDS011;61944;52.538;6.108;2022-07-29T02:23:45;6.47;;;2.78;;
73650;SDS011;61944;52.538;6.108;2022-07-29T02:26:11;10.13;;;3.65;;
73650;SDS011;61944;52.538;6.108;2022-07-29T02:28:36;5.07;;;3.10;;
73650;SDS011;61944;52.538;6.108;2022-07-29T02:31:03;4.90;;;2.90;;
73650;SDS011;61944;52.538;6.108;2022-07-29T02:33:29;5.10;;;3.10;;
73650;SDS011;61944;52.538;6.108;2022-07-29T02:35:55;6.72;;;3.40;;
73650;SDS011;61944;52.538;6.108;2022-07-29T02:38:21;5.00;;;2.75;;
73650;SDS011;61944;52.538;6.108;2022-07-29T02:41:10;7.60;;;3.22;;
73650;SDS011;61944;52.538;6.108;2022-07-29T02:43:39;5.45;;;3.05;;
73650;SDS011;61944;52.538;6.108;2022-07-29T02:46:05;4.30;;;2.55;;
73650;SDS011;61944;52.538;6.108;2022-07-29T02:48:38;7.82;;;4.00;;
73650;SDS011;61944;52.538;6.108;2022-07-29T02:51:12;7.68;;;3.17;;
73650;SDS011;61944;52.538;6.108;2022-07-29T02:53:41;6.50;;;3.58;;
73650;SDS011;61944;52.538;6.108;2022-07-29T02:56:10;7.43;;;3.17;;
73650;SDS011;61944;52.538;6.108;2022-07-29T03:01:08;9.25;;;2.72;;
73650;SDS011;61944;52.538;6.108;2022-07-29T03:03:36;6.25;;;3.10;;
73650;SDS011;61944;52.538;6.108;2022-07-29T03:06:01;5.10;;;3.00;;
73650;SDS011;61944;52.538;6.108;2022-07-29T03:08:27;5.78;;;3.33;;
73650;SDS011;61944;52.538;6.108;2022-07-29T03:10:53;7.80;;;3.33;;
73650;SDS011;61944;52.538;6.108;2022-07-29T03:13:19;6.45;;;2.83;;
73650;SDS011;61944;52.538;6.108;2022-07-29T03:15:44;8.55;;;3.25;;
73650;SDS011;61944;52.538;6.108;2022-07-29T03:18:10;5.55;;;2.60;;
73650;SDS011;61944;52.538;6.108;2022-07-29T03:20:36;4.40;;;3.03;;
73650;SDS011;61944;52.538;6.108;2022-07-29T03:23:01;3.70;;;2.58;;
73650;SDS011;61944;52.538;6.108;2022-07-29T03:25:27;5.63;;;2.75;;
73650;SDS011;61944;52.538;6.108;2022-07-29T03:27:52;8.35;;;4.30;;
73650;SDS011;61944;52.538;6.108;2022-07-29T03:30:17;6.20;;;3.05;;
73650;SDS011;61944;52.538;6.108;2022-07-29T03:32:42;7.00;;;3.22;;
73650;SDS011;61944;52.538;6.108;2022-07-29T03:35:08;3.80;;;3.10;;
73650;SDS011;61944;52.538;6.108;2022-07-29T03:37:33;9.35;;;3.45;;
73650;SDS011;61944;52.538;6.108;2022-07-29T03:39:59;6.45;;;3.17;;
73650;SDS011;61944;52.538;6.108;2022-07-29T03:42:26;5.07;;;3.05;;
73650;SDS011;61944;52.538;6.108;2022-07-29T03:44:53;5.55;;;3.60;;
73650;SDS011;61944;52.538;6.108;2022-07-29T03:47:23;7.20;;;3.20;;
73650;SDS011;61944;52.538;6.108;2022-07-29T03:49:50;11.13;;;4.13;;
73650;SDS011;61944;52.538;6.108;2022-07-29T03:52:17;8.57;;;3.53;;
73650;SDS011;61944;52.538;6.108;2022-07-29T03:54:42;8.25;;;3.65;;
73650;SDS011;61944;52.538;6.108;2022-07-29T03:57:08;6.35;;;4.18;;
73650;SDS011;61944;52.538;6.108;2022-07-29T03:59:35;6.25;;;3.30;;
73650;SDS011;61944;52.538;6.108;2022-07-29T04:02:01;5.97;;;3.53;;
73650;SDS011;61944;52.538;6.108;2022-07-29T04:04:27;7.30;;;3.83;;
73650;SDS011;61944;52.538;6.108;2022-07-29T04:06:52;4.00;;;3.25;;
73650;SDS011;61944;52.538;6.108;2022-07-29T04:09:17;7.43;;;3.55;;
73650;SDS011;61944;52.538;6.108;2022-07-29T04:11:43;6.17;;;2.87;;
73650;SDS011;61944;52.538;6.108;2022-07-29T04:14:08;8.32;;;3.60;;
73650;SDS011;61944;52.538;6.108;2022-07-29T04:16:34;3.92;;;2.90;;
73650;SDS011;61944;52.538;6.108;2022-07-29T04:18:59;5.93;;;3.03;;
73650;SDS011;61944;52.538;6.108;2022-07-29T04:21:25;5.35;;;3.67;;
73650;SDS011;61944;52.538;6.108;2022-07-29T04:23:50;9.38;;;3.38;;
73650;SDS011;61944;52.538;6.108;2022-07-29T04:26:19;6.13;;;3.50;;
73650;SDS011;61944;52.538;6.108;2022-07-29T04:28:44;6.97;;;2.90;;
73650;SDS011;61944;52.538;6.108;2022-07-29T04:31:10;4.18;;;2.88;;
73650;SDS011;61944;52.538;6.108;2022-07-29T04:33:35;9.05;;;3.70;;
73650;SDS011;61944;52.538;6.108;2022-07-29T04:36:03;8.15;;;3.50;;
73650;SDS011;61944;52.538;6.108;2022-07-29T04:38:28;5.88;;;3.45;;
73650;SDS011;61944;52.538;6.108;2022-07-29T04:40:54;5.65;;;3.58;;
73650;SDS011;61944;52.538;6.108;2022-07-29T04:43:19;6.45;;;3.83;;
73650;SDS011;61944;52.538;6.108;2022-07-29T04:45:44;8.70;;;3.28;;
73650;SDS011;61944;52.538;6.108;2022-07-29T04:48:10;3.70;;;3.35;;
73650;SDS011;61944;52.538;6.108;2022-07-29T04:50:37;4.45;;;3.42;;
73650;SDS011;61944;52.538;6.108;2022-07-29T04:53:03;6.85;;;2.60;;
73650;SDS011;61944;52.538;6.108;2022-07-29T04:55:28;5.00;;;3.22;;
73650;SDS011;61944;52.538;6.108;2022-07-29T04:57:53;5.93;;;3.42;;
73650;SDS011;61944;52.538;6.108;2022-07-29T05:00:18;6.07;;;3.93;;
73650;SDS011;61944;52.538;6.108;2022-07-29T05:02:44;5.32;;;3.67;;
73650;SDS011;61944;52.538;6.108;2022-07-29T05:05:09;8.65;;;5.10;;
73650;SDS011;61944;52.538;6.108;2022-07-29T05:07:34;8.90;;;3.95;;
73650;SDS011;61944;52.538;6.108;2022-07-29T05:09:59;5.68;;;3.83;;
73650;SDS011;61944;52.538;6.108;2022-07-29T05:12:26;7.80;;;3.65;;
73650;SDS011;61944;52.538;6.108;2022-07-29T05:14:52;7.97;;;3.78;;
73650;SDS011;61944;52.538;6.108;2022-07-29T05:17:17;7.45;;;3.00;;
73650;SDS011;61944;52.538;6.108;2022-07-29T05:19:43;7.85;;;3.50;;
73650;SDS011;61944;52.538;6.108;2022-07-29T05:22:08;7.65;;;4.05;;
73650;SDS011;61944;52.538;6.108;2022-07-29T05:24:33;4.75;;;2.92;;
73650;SDS011;61944;52.538;6.108;2022-07-29T05:26:58;6.80;;;3.55;;
73650;SDS011;61944;52.538;6.108;2022-07-29T05:29:24;6.28;;;3.28;;
73650;SDS011;61944;52.538;6.108;2022-07-29T05:31:49;5.95;;;4.20;;
73650;SDS011;61944;52.538;6.108;2022-07-29T05:34:15;7.47;;;3.88;;
73650;SDS011;61944;52.538;6.108;2022-07-29T05:36:41;5.25;;;3.53;;
73650;SDS011;61944;52.538;6.108;2022-07-29T05:39:09;6.68;;;2.20;;
73650;SDS011;61944;52.538;6.108;2022-07-29T05:41:34;3.05;;;2.38;;
73650;SDS011;61944;52.538;6.108;2022-07-29T05:43:59;18.75;;;3.80;;
73650;SDS011;61944;52.538;6.108;2022-07-29T05:46:24;8.45;;;3.67;;
73650;SDS011;61944;52.538;6.108;2022-07-29T05:48:50;5.88;;;3.17;;
73650;SDS011;61944;52.538;6.108;2022-07-29T05:51:15;6.55;;;4.03;;
73650;SDS011;61944;52.538;6.108;2022-07-29T05:53:40;8.50;;;3.70;;
73650;SDS011;61944;52.538;6.108;2022-07-29T05:56:06;10.00;;;3.47;;
73650;SDS011;61944;52.538;6.108;2022-07-29T05:58:32;11.50;;;4.40;;
73650;SDS011;61944;52.538;6.108;2022-07-29T06:00:57;10.38;;;4.93;;
73650;SDS011;61944;52.538;6.108;2022-07-29T06:03:25;9.02;;;4.03;;
73650;SDS011;61944;52.538;6.108;2022-07-29T06:05:51;6.82;;;3.70;;
73650;SDS011;61944;52.538;6.108;2022-07-29T06:08:16;7.32;;;4.47;;
73650;SDS011;61944;52.538;6.108;2022-07-29T06:10:42;11.18;;;4.10;;
73650;SDS011;61944;52.538;6.108;2022-07-29T06:13:07;7.88;;;4.10;;
73650;SDS011;61944;52.538;6.108;2022-07-29T06:15:32;8.82;;;4.28;;
73650;SDS011;61944;52.538;6.108;2022-07-29T06:17:58;9.43;;;4.00;;
73650;SDS011;61944;52.538;6.108;2022-07-29T06:20:23;7.32;;;3.72;;
73650;SDS011;61944;52.538;6.108;2022-07-29T06:22:49;9.10;;;4.25;;
73650;SDS011;61944;52.538;6.108;2022-07-29T06:25:14;8.93;;;3.93;;
73650;SDS011;61944;52.538;6.108;2022-07-29T06:27:39;9.20;;;4.13;;
73650;SDS011;61944;52.538;6.108;2022-07-29T06:30:04;6.93;;;4.15;;
73650;SDS011;61944;52.538;6.108;2022-07-29T06:32:32;6.95;;;4.32;;
73650;SDS011;61944;52.538;6.108;2022-07-29T06:34:57;12.13;;;4.22;;
73650;SDS011;61944;52.538;6.108;2022-07-29T06:37:22;11.25;;;4.97;;
73650;SDS011;61944;52.538;6.108;2022-07-29T06:39:47;7.88;;;4.28;;
73650;SDS011;61944;52.538;6.108;2022-07-29T06:42:13;7.93;;;4.15;;
73650;SDS011;61944;52.538;6.108;2022-07-29T06:44:38;8.35;;;4.30;;
73650;SDS011;61944;52.538;6.108;2022-07-29T06:47:03;11.25;;;4.30;;
73650;SDS011;61944;52.538;6.108;2022-07-29T06:49:28;9.93;;;4.25;;
73650;SDS011;61944;52.538;6.108;2022-07-29T06:51:54;9.20;;;4.25;;
73650;SDS011;61944;52.538;6.108;2022-07-29T06:54:19;10.13;;;5.25;;
73650;SDS011;61944;52.538;6.108;2022-07-29T06:56:45;9.20;;;4.63;;
73650;SDS011;61944;52.538;6.108;2022-07-29T06:59:10;11.88;;;5.05;;
73650;SDS011;61944;52.538;6.108;2022-07-29T07:01:36;8.73;;;4.53;;
73650;SDS011;61944;52.538;6.108;2022-07-29T07:04:02;9.18;;;4.53;;
73650;SDS011;61944;52.538;6.108;2022-07-29T07:06:27;12.52;;;4.40;;
73650;SDS011;61944;52.538;6.108;2022-07-29T07:08:52;8.43;;;5.38;;
73650;SDS011;61944;52.538;6.108;2022-07-29T07:11:17;8.65;;;5.38;;
73650;SDS011;61944;52.538;6.108;2022-07-29T07:13:43;9.48;;;5.35;;
73650;SDS011;61944;52.538;6.108;2022-07-29T07:16:08;9.93;;;4.35;;
73650;SDS011;61944;52.538;6.108;2022-07-29T07:18:33;8.95;;;4.45;;
73650;SDS011;61944;52.538;6.108;2022-07-29T07:20:58;9.93;;;4.63;;
73650;SDS011;61944;52.538;6.108;2022-07-29T07:23:24;11.75;;;4.65;;
73650;SDS011;61944;52.538;6.108;2022-07-29T07:25:49;13.50;;;5.35;;
73650;SDS011;61944;52.538;6.108;2022-07-29T07:28:14;6.03;;;4.82;;
73650;SDS011;61944;52.538;6.108;2022-07-29T07:30:40;25.38;;;5.60;;
73650;SDS011;61944;52.538;6.108;2022-07-29T07:33:05;12.43;;;6.93;;
73650;SDS011;61944;52.538;6.108;2022-07-29T07:35:31;21.52;;;7.32;;
73650;SDS011;61944;52.538;6.108;2022-07-29T07:37:59;10.07;;;5.30;;
73650;SDS011;61944;52.538;6.108;2022-07-29T07:40:24;12.30;;;5.22;;
73650;SDS011;61944;52.538;6.108;2022-07-29T07:42:53;9.45;;;4.75;;
73650;SDS011;61944;52.538;6.108;2022-07-29T07:45:18;10.20;;;5.55;;
73650;SDS011;61944;52.538;6.108;2022-07-29T07:47:43;10.00;;;5.35;;
73650;SDS011;61944;52.538;6.108;2022-07-29T07:50:09;14.13;;;6.85;;
73650;SDS011;61944;52.538;6.108;2022-07-29T07:52:48;12.13;;;6.15;;
73650;SDS011;61944;52.538;6.108;2022-07-29T07:55:13;11.25;;;6.90;;
73650;SDS011;61944;52.538;6.108;2022-07-29T07:57:39;11.88;;;6.10;;
73650;SDS011;61944;52.538;6.108;2022-07-29T08:00:04;17.33;;;6.72;;
73650;SDS011;61944;52.538;6.108;2022-07-29T08:02:29;18.65;;;7.15;;
73650;SDS011;61944;52.538;6.108;2022-07-29T08:04:55;9.75;;;5.72;;
73650;SDS011;61944;52.538;6.108;2022-07-29T08:07:20;15.57;;;6.60;;
73650;SDS011;61944;52.538;6.108;2022-07-29T08:09:45;14.95;;;6.47;;
73650;SDS011;61944;52.538;6.108;2022-07-29T08:12:11;17.88;;;6.95;;
73650;SDS011;61944;52.538;6.108;2022-07-29T08:14:39;13.95;;;6.07;;
73650;SDS011;61944;52.538;6.108;2022-07-29T08:17:04;17.10;;;8.38;;
73650;SDS011;61944;52.538;6.108;2022-07-29T08:19:32;13.15;;;7.03;;
73650;SDS011;61944;52.538;6.108;2022-07-29T08:22:00;11.07;;;5.68;;
73650;SDS011;61944;52.538;6.108;2022-07-29T08:24:29;16.25;;;7.32;;
73650;SDS011;61944;52.538;6.108;2022-07-29T08:27:11;12.95;;;5.60;;
73650;SDS011;61944;52.538;6.108;2022-07-29T08:29:39;12.55;;;7.35;;
73650;SDS011;61944;52.538;6.108;2022-07-29T08:32:05;16.38;;;7.78;;
73650;SDS011;61944;52.538;6.108;2022-07-29T08:34:33;13.65;;;6.85;;
73650;SDS011;61944;52.538;6.108;2022-07-29T08:37:01;14.65;;;7.35;;
73650;SDS011;61944;52.538;6.108;2022-07-29T08:39:26;15.38;;;7.13;;
73650;SDS011;61944;52.538;6.108;2022-07-29T08:41:52;15.80;;;8.10;;
73650;SDS011;61944;52.538;6.108;2022-07-29T08:44:18;22.58;;;8.18;;
73650;SDS011;61944;52.538;6.108;2022-07-29T08:46:43;16.48;;;7.07;;
73650;SDS011;61944;52.538;6.108;2022-07-29T08:49:11;22.45;;;8.25;;
73650;SDS011;61944;52.538;6.108;2022-07-29T08:51:40;18.70;;;6.95;;
73650;SDS011;61944;52.538;6.108;2022-07-29T08:54:09;17.58;;;7.30;;
73650;SDS011;61944;52.538;6.108;2022-07-29T08:56:34;12.45;;;7.03;;
73650;SDS011;61944;52.538;6.108;2022-07-29T08:59:02;12.70;;;5.53;;
73650;SDS011;61944;52.538;6.108;2022-07-29T09:01:27;20.30;;;7.47;;
73650;SDS011;61944;52.538;6.108;2022-07-29T09:03:54;10.65;;;5.82;;
73650;SDS011;61944;52.538;6.108;2022-07-29T09:06:20;17.70;;;7.97;;
73650;SDS011;61944;52.538;6.108;2022-07-29T09:08:46;18.45;;;8.73;;
73650;SDS011;61944;52.538;6.108;2022-07-29T09:11:12;15.65;;;7.93;;
73650;SDS011;61944;52.538;6.108;2022-07-29T09:13:37;19.63;;;8.63;;
73650;SDS011;61944;52.538;6.108;2022-07-29T09:16:03;18.55;;;9.75;;
73650;SDS011;61944;52.538;6.108;2022-07-29T09:18:41;15.65;;;7.80;;
73650;SDS011;61944;52.538;6.108;2022-07-29T09:21:08;16.88;;;8.10;;
73650;SDS011;61944;52.538;6.108;2022-07-29T09:24:11;14.75;;;8.13;;
73650;SDS011;61944;52.538;6.108;2022-07-29T09:26:38;14.50;;;7.15;;
73650;SDS011;61944;52.538;6.108;2022-07-29T09:31:56;19.10;;;8.68;;
73650;SDS011;61944;52.538;6.108;2022-07-29T09:34:25;20.40;;;8.48;;
73650;SDS011;61944;52.538;6.108;2022-07-29T09:36:50;14.18;;;7.68;;
73650;SDS011;61944;52.538;6.108;2022-07-29T09:39:27;13.50;;;7.95;;
73650;SDS011;61944;52.538;6.108;2022-07-29T09:41:54;14.77;;;8.38;;
73650;SDS011;61944;52.538;6.108;2022-07-29T09:44:20;16.95;;;6.97;;
73650;SDS011;61944;52.538;6.108;2022-07-29T09:47:02;15.73;;;8.55;;
73650;SDS011;61944;52.538;6.108;2022-07-29T09:49:31;14.88;;;7.93;;
73650;SDS011;61944;52.538;6.108;2022-07-29T09:52:03;16.10;;;7.68;;
73650;SDS011;61944;52.538;6.108;2022-07-29T09:54:28;18.55;;;6.85;;
73650;SDS011;61944;52.538;6.108;2022-07-29T09:56:59;11.75;;;7.13;;
73650;SDS011;61944;52.538;6.108;2022-07-29T09:59:24;14.60;;;8.50;;
73650;SDS011;61944;52.538;6.108;2022-07-29T10:01:51;17.08;;;7.88;;
73650;SDS011;61944;52.538;6.108;2022-07-29T10:04:16;15.10;;;6.72;;
73650;SDS011;61944;52.538;6.108;2022-07-29T10:06:55;14.90;;;8.73;;
73650;SDS011;61944;52.538;6.108;2022-07-29T10:09:21;19.88;;;7.70;;
73650;SDS011;61944;52.538;6.108;2022-07-29T10:14:30;15.20;;;8.45;;
73650;SDS011;61944;52.538;6.108;2022-07-29T10:16:56;17.77;;;6.97;;
73650;SDS011;61944;52.538;6.108;2022-07-29T10:19:22;17.65;;;8.25;;
73650;SDS011;61944;52.538;6.108;2022-07-29T10:21:47;12.93;;;7.03;;
73650;SDS011;61944;52.538;6.108;2022-07-29T10:24:12;12.57;;;7.53;;
73650;SDS011;61944;52.538;6.108;2022-07-29T10:26:38;14.00;;;6.97;;
73650;SDS011;61944;52.538;6.108;2022-07-29T10:29:05;14.63;;;7.95;;
73650;SDS011;61944;52.538;6.108;2022-07-29T10:31:41;11.98;;;7.20;;
73650;SDS011;61944;52.538;6.108;2022-07-29T10:34:13;10.60;;;7.63;;
73650;SDS011;61944;52.538;6.108;2022-07-29T10:36:54;13.27;;;7.53;;
73650;SDS011;61944;52.538;6.108;2022-07-29T10:39:32;11.35;;;6.32;;
73650;SDS011;61944;52.538;6.108;2022-07-29T10:42:15;11.05;;;6.90;;
73650;SDS011;61944;52.538;6.108;2022-07-29T10:44:42;10.10;;;6.65;;
73650;SDS011;61944;52.538;6.108;2022-07-29T10:47:08;16.23;;;7.22;;
73650;SDS011;61944;52.538;6.108;2022-07-29T10:49:33;9.55;;;6.88;;
73650;SDS011;61944;52.538;6.108;2022-07-29T10:51:59;12.60;;;6.40;;
73650;SDS011;61944;52.538;6.108;2022-07-29T10:59:38;11.68;;;6.20;;
73650;SDS011;61944;52.538;6.108;2022-07-29T11:02:18;10.77;;;6.80;;
73650;SDS011;61944;52.538;6.108;2022-07-29T11:07:14;12.00;;;6.10;;
73650;SDS011;61944;52.538;6.108;2022-07-29T11:09:41;9.85;;;6.10;;
73650;SDS011;61944;52.538;6.108;2022-07-29T11:12:52;14.23;;;6.53;;
73650;SDS011;61944;52.538;6.108;2022-07-29T11:14:58;13.57;;;7.18;;
73650;SDS011;61944;52.538;6.108;2022-07-29T11:17:26;14.97;;;7.47;;
73650;SDS011;61944;52.538;6.108;2022-07-29T11:20:17;15.93;;;6.38;;
73650;SDS011;61944;52.538;6.108;2022-07-29T11:22:40;13.23;;;5.43;;
73650;SDS011;61944;52.538;6.108;2022-07-29T11:25:15;10.82;;;5.55;;
73650;SDS011;61944;52.538;6.108;2022-07-29T11:27:41;15.93;;;6.00;;
73650;SDS011;61944;52.538;6.108;2022-07-29T11:30:09;11.05;;;5.50;;
73650;SDS011;61944;52.538;6.108;2022-07-29T11:32:37;9.77;;;6.15;;
73650;SDS011;61944;52.538;6.108;2022-07-29T11:35:20;11.02;;;6.43;;
73650;SDS011;61944;52.538;6.108;2022-07-29T11:40:12;17.63;;;7.13;;
73650;SDS011;61944;52.538;6.108;2022-07-29T11:42:38;9.43;;;5.05;;
73650;SDS011;61944;52.538;6.108;2022-07-29T11:45:04;8.55;;;6.05;;
73650;SDS011;61944;52.538;6.108;2022-07-29T11:47:30;10.02;;;5.13;;
73650;SDS011;61944;52.538;6.108;2022-07-29T11:49:56;8.98;;;5.78;;
73650;SDS011;61944;52.538;6.108;2022-07-29T11:52:43;9.18;;;5.63;;
73650;SDS011;61944;52.538;6.108;2022-07-29T11:55:11;9.65;;;5.38;;
73650;SDS011;61944;52.538;6.108;2022-07-29T11:57:37;10.82;;;6.82;;
73650;SDS011;61944;52.538;6.108;2022-07-29T12:00:19;16.88;;;7.25;;
73650;SDS011;61944;52.538;6.108;2022-07-29T12:02:46;8.77;;;5.95;;
73650;SDS011;61944;52.538;6.108;2022-07-29T12:05:11;8.20;;;5.90;;
73650;SDS011;61944;52.538;6.108;2022-07-29T12:07:37;10.85;;;6.35;;
73650;SDS011;61944;52.538;6.108;2022-07-29T12:10:08;11.38;;;7.80;;
73650;SDS011;61944;52.538;6.108;2022-07-29T12:12:37;7.15;;;6.10;;
73650;SDS011;61944;52.538;6.108;2022-07-29T12:15:16;12.98;;;6.30;;
73650;SDS011;61944;52.538;6.108;2022-07-29T12:17:43;9.55;;;5.80;;
73650;SDS011;61944;52.538;6.108;2022-07-29T12:20:12;13.82;;;6.55;;
73650;SDS011;61944;52.538;6.108;2022-07-29T12:22:41;13.05;;;5.68;;
73650;SDS011;61944;52.538;6.108;2022-07-29T12:27:34;8.60;;;5.95;;
73650;SDS011;61944;52.538;6.108;2022-07-29T12:30:04;7.57;;;5.15;;
73650;SDS011;61944;52.538;6.108;2022-07-29T12:32:31;10.93;;;5.25;;
73650;SDS011;61944;52.538;6.108;2022-07-29T12:34:56;13.18;;;5.20;;
73650;SDS011;61944;52.538;6.108;2022-07-29T12:37:21;11.65;;;5.80;;
73650;SDS011;61944;52.538;6.108;2022-07-29T12:39:47;11.02;;;5.15;;
73650;SDS011;61944;52.538;6.108;2022-07-29T12:42:13;9.40;;;5.35;;
73650;SDS011;61944;52.538;6.108;2022-07-29T12:44:48;13.68;;;5.60;;
73650;SDS011;61944;52.538;6.108;2022-07-29T12:47:14;13.27;;;5.82;;
73650;SDS011;61944;52.538;6.108;2022-07-29T12:49:42;8.90;;;4.70;;
73650;SDS011;61944;52.538;6.108;2022-07-29T12:52:23;9.63;;;5.32;;
73650;SDS011;61944;52.538;6.108;2022-07-29T12:54:49;9.63;;;4.30;;
73650;SDS011;61944;52.538;6.108;2022-07-29T12:57:14;9.65;;;4.25;;
73650;SDS011;61944;52.538;6.108;2022-07-29T12:59:39;10.87;;;4.87;;
73650;SDS011;61944;52.538;6.108;2022-07-29T13:02:05;13.60;;;4.22;;
73650;SDS011;61944;52.538;6.108;2022-07-29T13:04:32;11.85;;;4.43;;
73650;SDS011;61944;52.538;6.108;2022-07-29T13:06:58;6.28;;;4.43;;
73650;SDS011;61944;52.538;6.108;2022-07-29T13:09:23;7.00;;;4.05;;
73650;SDS011;61944;52.538;6.108;2022-07-29T13:12:00;11.27;;;5.15;;
73650;SDS011;61944;52.538;6.108;2022-07-29T13:14:31;11.90;;;4.63;;
73650;SDS011;61944;52.538;6.108;2022-07-29T13:22:12;8.87;;;5.20;;
73650;SDS011;61944;52.538;6.108;2022-07-29T13:24:47;11.50;;;5.53;;
73650;SDS011;61944;52.538;6.108;2022-07-29T13:27:14;7.13;;;4.35;;
73650;SDS011;61944;52.538;6.108;2022-07-29T13:29:39;11.60;;;3.95;;
73650;SDS011;61944;52.538;6.108;2022-07-29T13:32:05;7.78;;;5.22;;
73650;SDS011;61944;52.538;6.108;2022-07-29T13:34:30;9.07;;;4.80;;
73650;SDS011;61944;52.538;6.108;2022-07-29T13:36:55;11.75;;;5.13;;
73650;SDS011;61944;52.538;6.108;2022-07-29T13:39:21;8.40;;;5.13;;
73650;SDS011;61944;52.538;6.108;2022-07-29T13:41:46;8.88;;;4.72;;
73650;SDS011;61944;52.538;6.108;2022-07-29T13:44:11;13.15;;;5.82;;
73650;SDS011;61944;52.538;6.108;2022-07-29T13:46:36;11.15;;;4.93;;
73650;SDS011;61944;52.538;6.108;2022-07-29T13:49:02;7.20;;;4.27;;
73650;SDS011;61944;52.538;6.108;2022-07-29T13:51:27;12.95;;;5.38;;
73650;SDS011;61944;52.538;6.108;2022-07-29T13:53:52;9.18;;;4.60;;
73650;SDS011;61944;52.538;6.108;2022-07-29T13:56:17;9.05;;;5.90;;
73650;SDS011;61944;52.538;6.108;2022-07-29T13:58:43;9.60;;;4.53;;
73650;SDS011;61944;52.538;6.108;2022-07-29T14:01:08;12.80;;;4.32;;
73650;SDS011;61944;52.538;6.108;2022-07-29T14:03:33;10.80;;;4.10;;
73650;SDS011;61944;52.538;6.108;2022-07-29T14:05:59;11.17;;;4.33;;
73650;SDS011;61944;52.538;6.108;2022-07-29T14:08:28;7.82;;;3.88;;
73650;SDS011;61944;52.538;6.108;2022-07-29T14:10:53;9.38;;;4.03;;
73650;SDS011;61944;52.538;6.108;2022-07-29T14:13:18;8.30;;;3.80;;
73650;SDS011;61944;52.538;6.108;2022-07-29T14:15:43;7.75;;;3.67;;
73650;SDS011;61944;52.538;6.108;2022-07-29T14:18:08;7.80;;;3.90;;
73650;SDS011;61944;52.538;6.108;2022-07-29T14:20:34;11.03;;;3.80;;
73650;SDS011;61944;52.538;6.108;2022-07-29T14:23:12;7.50;;;4.20;;
73650;SDS011;61944;52.538;6.108;2022-07-29T14:25:37;11.95;;;4.43;;
73650;SDS011;61944;52.538;6.108;2022-07-29T14:28:02;9.07;;;4.15;;
73650;SDS011;61944;52.538;6.108;2022-07-29T14:30:27;8.10;;;4.47;;
73650;SDS011;61944;52.538;6.108;2022-07-29T14:32:53;6.80;;;3.93;;
73650;SDS011;61944;52.538;6.108;2022-07-29T14:35:18;8.95;;;4.78;;
73650;SDS011;61944;52.538;6.108;2022-07-29T14:37:44;17.23;;;5.88;;
73650;SDS011;61944;52.538;6.108;2022-07-29T14:40:09;14.03;;;6.00;;
73650;SDS011;61944;52.538;6.108;2022-07-29T14:42:35;8.77;;;4.40;;
73650;SDS011;61944;52.538;6.108;2022-07-29T14:45:01;10.10;;;5.03;;
73650;SDS011;61944;52.538;6.108;2022-07-29T14:47:27;8.35;;;5.15;;
73650;SDS011;61944;52.538;6.108;2022-07-29T14:49:52;10.53;;;5.03;;
73650;SDS011;61944;52.538;6.108;2022-07-29T14:52:17;11.65;;;5.72;;
73650;SDS011;61944;52.538;6.108;2022-07-29T14:54:42;10.48;;;5.10;;
73650;SDS011;61944;52.538;6.108;2022-07-29T14:57:08;12.10;;;5.13;;
73650;SDS011;61944;52.538;6.108;2022-07-29T14:59:33;9.65;;;4.65;;
73650;SDS011;61944;52.538;6.108;2022-07-29T15:01:58;5.68;;;3.78;;
73650;SDS011;61944;52.538;6.108;2022-07-29T15:04:24;9.40;;;4.97;;
73650;SDS011;61944;52.538;6.108;2022-07-29T15:06:49;12.97;;;5.23;;
73650;SDS011;61944;52.538;6.108;2022-07-29T15:09:16;13.07;;;4.55;;
73650;SDS011;61944;52.538;6.108;2022-07-29T15:11:42;12.23;;;4.50;;
73650;SDS011;61944;52.538;6.108;2022-07-29T15:14:07;13.52;;;4.85;;
73650;SDS011;61944;52.538;6.108;2022-07-29T15:16:34;12.90;;;4.65;;
73650;SDS011;61944;52.538;6.108;2022-07-29T15:18:59;10.73;;;4.93;;
73650;SDS011;61944;52.538;6.108;2022-07-29T15:21:25;7.90;;;5.07;;